sensor_id;sensor_type;location;lat;lon;timestamp;P1;durP1;ratioP1;P2;durP2;ratioP2
69985;SDS011;57328;52.054;5.294;2023-05-15T00:00:46;24.10;;;11.18;;
69985;SDS011;57328;52.054;5.294;2023-05-15T00:03:13;25.85;;;12.20;;
69985;SDS011;57328;52.054;5.294;2023-05-15T00:05:41;27.58;;;12.88;;
69985;SDS011;57328;52.054;5.294;2023-05-15T00:08:09;25.45;;;12.15;;
69985;SDS011;57328;52.054;5.294;2023-05-15T00:10:36;27.60;;;11.95;;
69985;SDS011;57328;52.054;5.294;2023-05-15T00:13:08;27.55;;;12.52;;
69985;SDS011;57328;52.054;5.294;2023-05-15T00:15:35;27.50;;;12.45;;
69985;SDS011;57328;52.054;5.294;2023-05-15T00:18:02;30.00;;;13.30;;
69985;SDS011;57328;52.054;5.294;2023-05-15T00:20:29;31.90;;;14.30;;
69985;SDS011;57328;52.054;5.294;2023-05-15T00:22:56;32.55;;;12.82;;
69985;SDS011;57328;52.054;5.294;2023-05-15T00:25:24;31.17;;;14.18;;
69985;SDS011;57328;52.054;5.294;2023-05-15T00:27:51;32.13;;;13.27;;
69985;SDS011;57328;52.054;5.294;2023-05-15T00:30:18;32.42;;;13.93;;
69985;SDS011;57328;52.054;5.294;2023-05-15T00:32:45;35.90;;;14.48;;
69985;SDS011;57328;52.054;5.294;2023-05-15T00:35:12;31.35;;;13.85;;
69985;SDS011;57328;52.054;5.294;2023-05-15T00:37:40;31.05;;;13.77;;
69985;SDS011;57328;52.054;5.294;2023-05-15T00:40:08;30.95;;;13.20;;
69985;SDS011;57328;52.054;5.294;2023-05-15T00:42:36;34.90;;;14.05;;
69985;SDS011;57328;52.054;5.294;2023-05-15T00:45:03;33.63;;;13.77;;
69985;SDS011;57328;52.054;5.294;2023-05-15T00:49:59;33.55;;;12.95;;
69985;SDS011;57328;52.054;5.294;2023-05-15T00:52:26;32.58;;;14.35;;
69985;SDS011;57328;52.054;5.294;2023-05-15T00:54:54;28.88;;;13.50;;
69985;SDS011;57328;52.054;5.294;2023-05-15T00:57:21;30.10;;;13.27;;
69985;SDS011;57328;52.054;5.294;2023-05-15T00:59:51;35.50;;;14.38;;
69985;SDS011;57328;52.054;5.294;2023-05-15T01:02:18;33.78;;;14.63;;
69985;SDS011;57328;52.054;5.294;2023-05-15T01:04:46;34.20;;;13.85;;
69985;SDS011;57328;52.054;5.294;2023-05-15T01:07:13;36.38;;;14.48;;
69985;SDS011;57328;52.054;5.294;2023-05-15T01:09:41;35.95;;;13.85;;
69985;SDS011;57328;52.054;5.294;2023-05-15T01:12:09;34.95;;;14.73;;
69985;SDS011;57328;52.054;5.294;2023-05-15T01:14:36;37.63;;;15.23;;
69985;SDS011;57328;52.054;5.294;2023-05-15T01:17:03;34.40;;;13.50;;
69985;SDS011;57328;52.054;5.294;2023-05-15T01:19:30;37.67;;;14.40;;
69985;SDS011;57328;52.054;5.294;2023-05-15T01:22:16;36.90;;;15.00;;
69985;SDS011;57328;52.054;5.294;2023-05-15T01:27:19;36.72;;;14.43;;
69985;SDS011;57328;52.054;5.294;2023-05-15T01:32:46;38.25;;;15.50;;
69985;SDS011;57328;52.054;5.294;2023-05-15T01:35:20;38.33;;;15.02;;
69985;SDS011;57328;52.054;5.294;2023-05-15T01:38:32;35.13;;;13.65;;
69985;SDS011;57328;52.054;5.294;2023-05-15T01:40:39;36.92;;;15.50;;
69985;SDS011;57328;52.054;5.294;2023-05-15T01:43:08;35.60;;;16.52;;
69985;SDS011;57328;52.054;5.294;2023-05-15T01:45:37;37.35;;;15.50;;
69985;SDS011;57328;52.054;5.294;2023-05-15T01:48:06;32.35;;;15.20;;
69985;SDS011;57328;52.054;5.294;2023-05-15T01:50:34;35.30;;;15.88;;
69985;SDS011;57328;52.054;5.294;2023-05-15T01:53:02;34.97;;;15.30;;
69985;SDS011;57328;52.054;5.294;2023-05-15T01:55:31;39.72;;;16.95;;
69985;SDS011;57328;52.054;5.294;2023-05-15T01:57:59;39.70;;;16.23;;
69985;SDS011;57328;52.054;5.294;2023-05-15T02:00:27;37.83;;;15.23;;
69985;SDS011;57328;52.054;5.294;2023-05-15T02:02:55;42.22;;;16.65;;
69985;SDS011;57328;52.054;5.294;2023-05-15T02:05:23;40.83;;;16.85;;
69985;SDS011;57328;52.054;5.294;2023-05-15T02:07:52;43.45;;;18.02;;
69985;SDS011;57328;52.054;5.294;2023-05-15T02:10:19;36.58;;;14.57;;
69985;SDS011;57328;52.054;5.294;2023-05-15T02:12:47;47.92;;;19.73;;
69985;SDS011;57328;52.054;5.294;2023-05-15T02:15:15;47.25;;;20.15;;
69985;SDS011;57328;52.054;5.294;2023-05-15T02:17:43;49.05;;;19.00;;
69985;SDS011;57328;52.054;5.294;2023-05-15T02:20:11;50.65;;;20.67;;
69985;SDS011;57328;52.054;5.294;2023-05-15T02:22:39;48.45;;;20.10;;
69985;SDS011;57328;52.054;5.294;2023-05-15T02:25:06;50.33;;;21.42;;
69985;SDS011;57328;52.054;5.294;2023-05-15T02:30:27;56.95;;;23.17;;
69985;SDS011;57328;52.054;5.294;2023-05-15T02:33:22;53.00;;;20.67;;
69985;SDS011;57328;52.054;5.294;2023-05-15T02:35:53;51.17;;;21.48;;
69985;SDS011;57328;52.054;5.294;2023-05-15T02:38:25;55.58;;;20.95;;
69985;SDS011;57328;52.054;5.294;2023-05-15T02:40:54;51.70;;;20.50;;
69985;SDS011;57328;52.054;5.294;2023-05-15T02:43:22;53.25;;;21.67;;
69985;SDS011;57328;52.054;5.294;2023-05-15T02:45:49;53.75;;;21.55;;
69985;SDS011;57328;52.054;5.294;2023-05-15T02:48:17;52.13;;;21.55;;
69985;SDS011;57328;52.054;5.294;2023-05-15T02:50:44;52.50;;;21.67;;
69985;SDS011;57328;52.054;5.294;2023-05-15T02:53:11;54.03;;;21.25;;
69985;SDS011;57328;52.054;5.294;2023-05-15T02:55:40;52.08;;;21.17;;
69985;SDS011;57328;52.054;5.294;2023-05-15T02:58:07;57.65;;;20.98;;
69985;SDS011;57328;52.054;5.294;2023-05-15T03:00:35;52.38;;;21.67;;
69985;SDS011;57328;52.054;5.294;2023-05-15T03:03:02;57.33;;;22.35;;
69985;SDS011;57328;52.054;5.294;2023-05-15T03:05:29;49.58;;;21.25;;
69985;SDS011;57328;52.054;5.294;2023-05-15T03:07:57;55.67;;;22.40;;
69985;SDS011;57328;52.054;5.294;2023-05-15T03:10:24;54.08;;;21.60;;
69985;SDS011;57328;52.054;5.294;2023-05-15T03:12:51;57.30;;;22.40;;
69985;SDS011;57328;52.054;5.294;2023-05-15T03:15:18;60.05;;;21.92;;
69985;SDS011;57328;52.054;5.294;2023-05-15T03:17:46;54.78;;;20.00;;
69985;SDS011;57328;52.054;5.294;2023-05-15T03:20:13;56.45;;;21.88;;
69985;SDS011;57328;52.054;5.294;2023-05-15T03:22:40;55.47;;;22.73;;
69985;SDS011;57328;52.054;5.294;2023-05-15T03:25:11;52.15;;;20.88;;
69985;SDS011;57328;52.054;5.294;2023-05-15T03:27:38;54.72;;;22.73;;
69985;SDS011;57328;52.054;5.294;2023-05-15T03:30:05;57.67;;;22.15;;
69985;SDS011;57328;52.054;5.294;2023-05-15T03:32:33;59.75;;;21.73;;
69985;SDS011;57328;52.054;5.294;2023-05-15T03:35:00;59.95;;;20.48;;
69985;SDS011;57328;52.054;5.294;2023-05-15T03:37:27;57.55;;;21.85;;
69985;SDS011;57328;52.054;5.294;2023-05-15T03:39:55;80.38;;;22.27;;
69985;SDS011;57328;52.054;5.294;2023-05-15T03:42:22;59.70;;;20.45;;
69985;SDS011;57328;52.054;5.294;2023-05-15T03:44:50;58.38;;;19.42;;
69985;SDS011;57328;52.054;5.294;2023-05-15T03:47:17;91.80;;;22.45;;
69985;SDS011;57328;52.054;5.294;2023-05-15T03:49:44;67.18;;;20.75;;
69985;SDS011;57328;52.054;5.294;2023-05-15T03:52:12;64.60;;;20.70;;
69985;SDS011;57328;52.054;5.294;2023-05-15T03:54:39;64.22;;;19.85;;
69985;SDS011;57328;52.054;5.294;2023-05-15T03:57:06;56.53;;;19.90;;
69985;SDS011;57328;52.054;5.294;2023-05-15T03:59:33;61.55;;;20.75;;
69985;SDS011;57328;52.054;5.294;2023-05-15T04:02:00;61.63;;;20.73;;
69985;SDS011;57328;52.054;5.294;2023-05-15T04:04:31;61.40;;;21.25;;
69985;SDS011;57328;52.054;5.294;2023-05-15T04:06:58;47.15;;;15.98;;
69985;SDS011;57328;52.054;5.294;2023-05-15T04:09:25;54.40;;;19.90;;
69985;SDS011;57328;52.054;5.294;2023-05-15T04:11:53;50.67;;;19.70;;
69985;SDS011;57328;52.054;5.294;2023-05-15T04:14:20;48.65;;;18.17;;
69985;SDS011;57328;52.054;5.294;2023-05-15T04:16:47;50.58;;;18.35;;
69985;SDS011;57328;52.054;5.294;2023-05-15T04:19:14;48.95;;;19.35;;
69985;SDS011;57328;52.054;5.294;2023-05-15T04:21:42;42.33;;;16.40;;
69985;SDS011;57328;52.054;5.294;2023-05-15T04:24:09;40.35;;;14.40;;
69985;SDS011;57328;52.054;5.294;2023-05-15T04:26:36;46.78;;;18.52;;
69985;SDS011;57328;52.054;5.294;2023-05-15T04:29:03;46.60;;;18.65;;
69985;SDS011;57328;52.054;5.294;2023-05-15T04:31:31;46.42;;;20.02;;
69985;SDS011;57328;52.054;5.294;2023-05-15T04:33:58;46.78;;;18.17;;
69985;SDS011;57328;52.054;5.294;2023-05-15T04:36:25;50.70;;;20.48;;
69985;SDS011;57328;52.054;5.294;2023-05-15T04:38:53;49.47;;;19.77;;
69985;SDS011;57328;52.054;5.294;2023-05-15T04:41:20;51.05;;;20.35;;
69985;SDS011;57328;52.054;5.294;2023-05-15T04:43:48;52.90;;;21.30;;
69985;SDS011;57328;52.054;5.294;2023-05-15T04:46:15;46.55;;;19.27;;
69985;SDS011;57328;52.054;5.294;2023-05-15T04:48:42;50.17;;;19.23;;
69985;SDS011;57328;52.054;5.294;2023-05-15T04:51:09;48.30;;;19.42;;
69985;SDS011;57328;52.054;5.294;2023-05-15T04:53:37;49.85;;;19.05;;
69985;SDS011;57328;52.054;5.294;2023-05-15T04:56:04;50.55;;;20.95;;
69985;SDS011;57328;52.054;5.294;2023-05-15T04:58:31;47.13;;;20.13;;
69985;SDS011;57328;52.054;5.294;2023-05-15T05:00:58;48.08;;;21.30;;
69985;SDS011;57328;52.054;5.294;2023-05-15T05:03:29;54.65;;;22.85;;
69985;SDS011;57328;52.054;5.294;2023-05-15T05:05:56;43.35;;;18.25;;
69985;SDS011;57328;52.054;5.294;2023-05-15T05:08:23;41.35;;;19.33;;
69985;SDS011;57328;52.054;5.294;2023-05-15T05:10:54;46.42;;;20.15;;
69985;SDS011;57328;52.054;5.294;2023-05-15T05:13:22;46.50;;;21.52;;
69985;SDS011;57328;52.054;5.294;2023-05-15T05:15:49;45.50;;;20.00;;
69985;SDS011;57328;52.054;5.294;2023-05-15T05:18:16;43.03;;;19.48;;
69985;SDS011;57328;52.054;5.294;2023-05-15T05:20:44;41.47;;;19.23;;
69985;SDS011;57328;52.054;5.294;2023-05-15T05:23:11;42.55;;;20.20;;
69985;SDS011;57328;52.054;5.294;2023-05-15T05:25:40;43.15;;;20.75;;
69985;SDS011;57328;52.054;5.294;2023-05-15T05:28:07;42.55;;;18.27;;
69985;SDS011;57328;52.054;5.294;2023-05-15T05:30:34;42.85;;;19.90;;
69985;SDS011;57328;52.054;5.294;2023-05-15T05:33:01;44.28;;;20.35;;
69985;SDS011;57328;52.054;5.294;2023-05-15T05:35:28;41.28;;;19.02;;
69985;SDS011;57328;52.054;5.294;2023-05-15T05:37:56;42.65;;;19.85;;
69985;SDS011;57328;52.054;5.294;2023-05-15T05:40:23;37.83;;;18.08;;
69985;SDS011;57328;52.054;5.294;2023-05-15T05:42:50;42.45;;;20.13;;
69985;SDS011;57328;52.054;5.294;2023-05-15T05:45:18;42.13;;;19.42;;
69985;SDS011;57328;52.054;5.294;2023-05-15T05:47:45;42.72;;;19.92;;
69985;SDS011;57328;52.054;5.294;2023-05-15T05:50:12;36.88;;;17.98;;
69985;SDS011;57328;52.054;5.294;2023-05-15T05:52:39;36.22;;;19.90;;
69985;SDS011;57328;52.054;5.294;2023-05-15T05:55:07;30.17;;;14.75;;
69985;SDS011;57328;52.054;5.294;2023-05-15T06:00:57;34.42;;;18.55;;
69985;SDS011;57328;52.054;5.294;2023-05-15T06:03:26;34.22;;;17.55;;
69985;SDS011;57328;52.054;5.294;2023-05-15T06:05:53;31.73;;;17.70;;
69985;SDS011;57328;52.054;5.294;2023-05-15T06:08:21;31.48;;;16.77;;
69985;SDS011;57328;52.054;5.294;2023-05-15T06:10:48;32.20;;;17.13;;
69985;SDS011;57328;52.054;5.294;2023-05-15T06:13:15;31.73;;;17.00;;
69985;SDS011;57328;52.054;5.294;2023-05-15T06:15:42;28.77;;;14.43;;
69985;SDS011;57328;52.054;5.294;2023-05-15T06:18:11;26.50;;;17.08;;
69985;SDS011;57328;52.054;5.294;2023-05-15T06:23:08;22.48;;;13.73;;
69985;SDS011;57328;52.054;5.294;2023-05-15T06:25:35;20.23;;;13.43;;
69985;SDS011;57328;52.054;5.294;2023-05-15T06:28:03;21.02;;;13.63;;
69985;SDS011;57328;52.054;5.294;2023-05-15T06:30:30;23.77;;;14.63;;
69985;SDS011;57328;52.054;5.294;2023-05-15T06:32:57;22.42;;;14.63;;
69985;SDS011;57328;52.054;5.294;2023-05-15T06:35:25;21.98;;;14.40;;
69985;SDS011;57328;52.054;5.294;2023-05-15T06:37:52;21.35;;;13.63;;
69985;SDS011;57328;52.054;5.294;2023-05-15T06:40:22;17.88;;;12.10;;
69985;SDS011;57328;52.054;5.294;2023-05-15T06:42:49;19.70;;;12.95;;
69985;SDS011;57328;52.054;5.294;2023-05-15T06:45:16;21.45;;;13.98;;
69985;SDS011;57328;52.054;5.294;2023-05-15T06:47:44;19.50;;;13.10;;
69985;SDS011;57328;52.054;5.294;2023-05-15T06:50:11;20.55;;;14.05;;
69985;SDS011;57328;52.054;5.294;2023-05-15T06:52:38;25.08;;;15.45;;
69985;SDS011;57328;52.054;5.294;2023-05-15T06:55:05;21.75;;;15.10;;
69985;SDS011;57328;52.054;5.294;2023-05-15T06:57:33;22.38;;;15.70;;
69985;SDS011;57328;52.054;5.294;2023-05-15T07:00:00;23.85;;;15.70;;
69985;SDS011;57328;52.054;5.294;2023-05-15T07:02:27;21.02;;;15.10;;
69985;SDS011;57328;52.054;5.294;2023-05-15T07:04:55;21.15;;;15.30;;
69985;SDS011;57328;52.054;5.294;2023-05-15T07:07:22;23.45;;;16.13;;
69985;SDS011;57328;52.054;5.294;2023-05-15T07:09:49;23.80;;;15.45;;
69985;SDS011;57328;52.054;5.294;2023-05-15T07:12:16;23.02;;;15.63;;
69985;SDS011;57328;52.054;5.294;2023-05-15T07:14:43;20.88;;;15.57;;
69985;SDS011;57328;52.054;5.294;2023-05-15T07:17:11;20.30;;;15.18;;
69985;SDS011;57328;52.054;5.294;2023-05-15T07:19:38;20.92;;;15.45;;
69985;SDS011;57328;52.054;5.294;2023-05-15T07:22:05;19.48;;;14.02;;
69985;SDS011;57328;52.054;5.294;2023-05-15T07:24:33;18.13;;;14.00;;
69985;SDS011;57328;52.054;5.294;2023-05-15T07:27:00;18.17;;;13.35;;
69985;SDS011;57328;52.054;5.294;2023-05-15T07:29:27;20.02;;;12.75;;
69985;SDS011;57328;52.054;5.294;2023-05-15T07:31:54;17.48;;;13.05;;
69985;SDS011;57328;52.054;5.294;2023-05-15T07:34:21;19.20;;;13.38;;
69985;SDS011;57328;52.054;5.294;2023-05-15T07:36:49;17.88;;;12.40;;
69985;SDS011;57328;52.054;5.294;2023-05-15T07:39:16;20.83;;;13.23;;
69985;SDS011;57328;52.054;5.294;2023-05-15T07:41:43;19.05;;;12.88;;
69985;SDS011;57328;52.054;5.294;2023-05-15T07:44:12;17.33;;;12.95;;
69985;SDS011;57328;52.054;5.294;2023-05-15T07:46:39;19.25;;;12.73;;
69985;SDS011;57328;52.054;5.294;2023-05-15T07:49:06;17.88;;;12.73;;
69985;SDS011;57328;52.054;5.294;2023-05-15T07:51:33;16.35;;;11.60;;
69985;SDS011;57328;52.054;5.294;2023-05-15T07:54:01;18.10;;;12.70;;
69985;SDS011;57328;52.054;5.294;2023-05-15T07:56:29;17.00;;;10.82;;
69985;SDS011;57328;52.054;5.294;2023-05-15T07:58:56;16.52;;;10.75;;
69985;SDS011;57328;52.054;5.294;2023-05-15T08:01:24;18.27;;;11.35;;
69985;SDS011;57328;52.054;5.294;2023-05-15T08:03:51;15.88;;;10.60;;
69985;SDS011;57328;52.054;5.294;2023-05-15T08:06:18;16.27;;;10.55;;
69985;SDS011;57328;52.054;5.294;2023-05-15T08:08:45;18.13;;;11.52;;
69985;SDS011;57328;52.054;5.294;2023-05-15T08:11:13;19.08;;;11.73;;
69985;SDS011;57328;52.054;5.294;2023-05-15T08:13:40;16.45;;;11.90;;
69985;SDS011;57328;52.054;5.294;2023-05-15T08:16:07;17.02;;;11.48;;
69985;SDS011;57328;52.054;5.294;2023-05-15T08:18:35;16.50;;;9.90;;
69985;SDS011;57328;52.054;5.294;2023-05-15T08:21:02;19.02;;;11.77;;
69985;SDS011;57328;52.054;5.294;2023-05-15T08:23:30;18.60;;;11.60;;
69985;SDS011;57328;52.054;5.294;2023-05-15T08:25:57;20.60;;;12.82;;
69985;SDS011;57328;52.054;5.294;2023-05-15T08:28:24;21.50;;;12.27;;
69985;SDS011;57328;52.054;5.294;2023-05-15T08:30:51;19.45;;;13.18;;
69985;SDS011;57328;52.054;5.294;2023-05-15T08:33:19;17.60;;;11.88;;
69985;SDS011;57328;52.054;5.294;2023-05-15T08:35:46;20.85;;;13.80;;
69985;SDS011;57328;52.054;5.294;2023-05-15T08:38:14;22.35;;;14.30;;
69985;SDS011;57328;52.054;5.294;2023-05-15T08:40:41;21.88;;;15.18;;
69985;SDS011;57328;52.054;5.294;2023-05-15T08:43:12;22.42;;;13.65;;
69985;SDS011;57328;52.054;5.294;2023-05-15T08:45:41;20.98;;;13.32;;
69985;SDS011;57328;52.054;5.294;2023-05-15T08:48:15;22.17;;;14.13;;
69985;SDS011;57328;52.054;5.294;2023-05-15T08:50:44;21.63;;;14.52;;
69985;SDS011;57328;52.054;5.294;2023-05-15T08:53:12;22.33;;;14.05;;
69985;SDS011;57328;52.054;5.294;2023-05-15T08:55:40;23.27;;;13.98;;
69985;SDS011;57328;52.054;5.294;2023-05-15T08:58:07;23.70;;;15.10;;
69985;SDS011;57328;52.054;5.294;2023-05-15T09:00:35;21.30;;;13.02;;
69985;SDS011;57328;52.054;5.294;2023-05-15T09:03:03;20.98;;;13.43;;
69985;SDS011;57328;52.054;5.294;2023-05-15T09:05:30;22.10;;;13.50;;
69985;SDS011;57328;52.054;5.294;2023-05-15T09:07:57;21.75;;;13.43;;
69985;SDS011;57328;52.054;5.294;2023-05-15T09:10:27;19.95;;;13.95;;
69985;SDS011;57328;52.054;5.294;2023-05-15T09:12:54;19.95;;;13.10;;
69985;SDS011;57328;52.054;5.294;2023-05-15T09:17:50;20.95;;;13.20;;
69985;SDS011;57328;52.054;5.294;2023-05-15T09:20:28;16.23;;;9.65;;
69985;SDS011;57328;52.054;5.294;2023-05-15T09:22:56;21.35;;;13.07;;
69985;SDS011;57328;52.054;5.294;2023-05-15T09:25:40;20.92;;;11.88;;
69985;SDS011;57328;52.054;5.294;2023-05-15T09:28:08;20.98;;;12.68;;
69985;SDS011;57328;52.054;5.294;2023-05-15T09:30:36;25.02;;;14.63;;
69985;SDS011;57328;52.054;5.294;2023-05-15T09:33:04;23.73;;;15.55;;
69985;SDS011;57328;52.054;5.294;2023-05-15T09:35:32;24.38;;;14.80;;
69985;SDS011;57328;52.054;5.294;2023-05-15T09:38:00;26.20;;;15.70;;
69985;SDS011;57328;52.054;5.294;2023-05-15T09:40:28;28.52;;;17.42;;
69985;SDS011;57328;52.054;5.294;2023-05-15T09:42:55;25.08;;;13.77;;
69985;SDS011;57328;52.054;5.294;2023-05-15T09:45:23;31.73;;;17.55;;
69985;SDS011;57328;52.054;5.294;2023-05-15T09:47:52;35.00;;;19.98;;
69985;SDS011;57328;52.054;5.294;2023-05-15T09:50:40;29.63;;;15.32;;
69985;SDS011;57328;52.054;5.294;2023-05-15T09:53:10;29.15;;;16.05;;
69985;SDS011;57328;52.054;5.294;2023-05-15T09:55:38;34.28;;;18.20;;
69985;SDS011;57328;52.054;5.294;2023-05-15T09:58:07;34.92;;;20.00;;
69985;SDS011;57328;52.054;5.294;2023-05-15T10:00:36;34.80;;;18.35;;
69985;SDS011;57328;52.054;5.294;2023-05-15T10:03:14;34.20;;;16.40;;
69985;SDS011;57328;52.054;5.294;2023-05-15T10:05:41;30.83;;;17.75;;
69985;SDS011;57328;52.054;5.294;2023-05-15T10:08:09;34.22;;;18.17;;
69985;SDS011;57328;52.054;5.294;2023-05-15T10:10:37;31.95;;;18.70;;
69985;SDS011;57328;52.054;5.294;2023-05-15T10:13:05;31.90;;;17.67;;
69985;SDS011;57328;52.054;5.294;2023-05-15T10:15:35;27.35;;;16.27;;
69985;SDS011;57328;52.054;5.294;2023-05-15T10:18:02;29.17;;;17.17;;
69985;SDS011;57328;52.054;5.294;2023-05-15T10:20:31;29.63;;;17.17;;
69985;SDS011;57328;52.054;5.294;2023-05-15T10:23:01;32.17;;;17.55;;
69985;SDS011;57328;52.054;5.294;2023-05-15T10:28:09;29.67;;;16.92;;
69985;SDS011;57328;52.054;5.294;2023-05-15T10:30:37;32.58;;;17.10;;
69985;SDS011;57328;52.054;5.294;2023-05-15T10:33:05;30.23;;;17.48;;
69985;SDS011;57328;52.054;5.294;2023-05-15T10:35:32;32.05;;;17.17;;
69985;SDS011;57328;52.054;5.294;2023-05-15T10:38:00;29.27;;;16.83;;
69985;SDS011;57328;52.054;5.294;2023-05-15T10:40:29;26.75;;;15.65;;
69985;SDS011;57328;52.054;5.294;2023-05-15T10:42:56;28.95;;;15.30;;
69985;SDS011;57328;52.054;5.294;2023-05-15T10:45:28;29.40;;;16.05;;
69985;SDS011;57328;52.054;5.294;2023-05-15T10:47:56;33.67;;;16.75;;
69985;SDS011;57328;52.054;5.294;2023-05-15T10:50:23;30.48;;;16.83;;
69985;SDS011;57328;52.054;5.294;2023-05-15T10:52:51;30.02;;;15.93;;
69985;SDS011;57328;52.054;5.294;2023-05-15T10:55:19;31.45;;;16.42;;
69985;SDS011;57328;52.054;5.294;2023-05-15T10:57:46;31.17;;;16.33;;
69985;SDS011;57328;52.054;5.294;2023-05-15T11:00:29;32.65;;;17.75;;
69985;SDS011;57328;52.054;5.294;2023-05-15T11:02:56;34.72;;;16.42;;
69985;SDS011;57328;52.054;5.294;2023-05-15T11:05:30;32.53;;;16.52;;
69985;SDS011;57328;52.054;5.294;2023-05-15T11:10:46;31.92;;;16.08;;
69985;SDS011;57328;52.054;5.294;2023-05-15T11:13:14;36.15;;;17.38;;
69985;SDS011;57328;52.054;5.294;2023-05-15T11:15:45;34.45;;;17.00;;
69985;SDS011;57328;52.054;5.294;2023-05-15T11:18:13;32.20;;;17.05;;
69985;SDS011;57328;52.054;5.294;2023-05-15T11:21:04;33.15;;;17.23;;
69985;SDS011;57328;52.054;5.294;2023-05-15T11:23:36;24.52;;;11.80;;
69985;SDS011;57328;52.054;5.294;2023-05-15T11:26:04;36.70;;;17.20;;
69985;SDS011;57328;52.054;5.294;2023-05-15T11:28:34;34.28;;;17.38;;
69985;SDS011;57328;52.054;5.294;2023-05-15T11:31:06;33.35;;;18.20;;
69985;SDS011;57328;52.054;5.294;2023-05-15T11:33:36;31.17;;;16.55;;
69985;SDS011;57328;52.054;5.294;2023-05-15T11:36:04;33.45;;;17.83;;
69985;SDS011;57328;52.054;5.294;2023-05-15T11:38:37;32.97;;;17.55;;
69985;SDS011;57328;52.054;5.294;2023-05-15T11:41:15;30.33;;;16.10;;
69985;SDS011;57328;52.054;5.294;2023-05-15T11:43:42;29.23;;;14.38;;
69985;SDS011;57328;52.054;5.294;2023-05-15T11:46:11;30.00;;;15.98;;
69985;SDS011;57328;52.054;5.294;2023-05-15T11:48:43;31.38;;;17.00;;
69985;SDS011;57328;52.054;5.294;2023-05-15T11:51:18;32.90;;;17.67;;
69985;SDS011;57328;52.054;5.294;2023-05-15T11:53:48;31.08;;;16.50;;
69985;SDS011;57328;52.054;5.294;2023-05-15T11:56:22;30.58;;;16.70;;
69985;SDS011;57328;52.054;5.294;2023-05-15T11:58:51;29.35;;;17.02;;
69985;SDS011;57328;52.054;5.294;2023-05-15T12:01:18;33.33;;;18.33;;
69985;SDS011;57328;52.054;5.294;2023-05-15T12:03:46;30.38;;;15.10;;
69985;SDS011;57328;52.054;5.294;2023-05-15T12:06:15;30.58;;;16.02;;
69985;SDS011;57328;52.054;5.294;2023-05-15T12:08:42;29.50;;;16.20;;
69985;SDS011;57328;52.054;5.294;2023-05-15T12:11:10;25.23;;;13.60;;
69985;SDS011;57328;52.054;5.294;2023-05-15T12:13:38;28.20;;;16.00;;
69985;SDS011;57328;52.054;5.294;2023-05-15T12:16:05;24.17;;;14.27;;
69985;SDS011;57328;52.054;5.294;2023-05-15T12:18:33;24.33;;;14.57;;
69985;SDS011;57328;52.054;5.294;2023-05-15T12:21:00;23.77;;;13.45;;
69985;SDS011;57328;52.054;5.294;2023-05-15T12:23:30;24.60;;;14.30;;
69985;SDS011;57328;52.054;5.294;2023-05-15T12:25:58;22.67;;;13.73;;
69985;SDS011;57328;52.054;5.294;2023-05-15T12:28:27;22.27;;;13.55;;
69985;SDS011;57328;52.054;5.294;2023-05-15T12:30:55;23.45;;;12.65;;
69985;SDS011;57328;52.054;5.294;2023-05-15T12:33:22;20.85;;;12.43;;
69985;SDS011;57328;52.054;5.294;2023-05-15T12:35:52;20.63;;;12.35;;
69985;SDS011;57328;52.054;5.294;2023-05-15T12:38:23;21.08;;;11.85;;
69985;SDS011;57328;52.054;5.294;2023-05-15T12:40:51;17.00;;;9.50;;
69985;SDS011;57328;52.054;5.294;2023-05-15T12:43:22;16.55;;;9.90;;
69985;SDS011;57328;52.054;5.294;2023-05-15T12:45:51;18.67;;;9.98;;
69985;SDS011;57328;52.054;5.294;2023-05-15T12:48:18;15.52;;;9.40;;
69985;SDS011;57328;52.054;5.294;2023-05-15T12:50:46;17.58;;;9.43;;
69985;SDS011;57328;52.054;5.294;2023-05-15T12:53:15;19.02;;;10.80;;
69985;SDS011;57328;52.054;5.294;2023-05-15T12:55:43;17.73;;;10.55;;
69985;SDS011;57328;52.054;5.294;2023-05-15T12:58:11;18.40;;;10.25;;
69985;SDS011;57328;52.054;5.294;2023-05-15T13:00:40;14.98;;;8.10;;
69985;SDS011;57328;52.054;5.294;2023-05-15T13:03:08;16.63;;;10.40;;
69985;SDS011;57328;52.054;5.294;2023-05-15T13:05:36;14.57;;;7.55;;
69985;SDS011;57328;52.054;5.294;2023-05-15T13:08:04;12.50;;;6.75;;
69985;SDS011;57328;52.054;5.294;2023-05-15T13:10:35;12.93;;;5.97;;
69985;SDS011;57328;52.054;5.294;2023-05-15T13:13:03;10.98;;;5.75;;
69985;SDS011;57328;52.054;5.294;2023-05-15T13:15:41;13.23;;;5.80;;
69985;SDS011;57328;52.054;5.294;2023-05-15T13:18:10;13.57;;;6.20;;
69985;SDS011;57328;52.054;5.294;2023-05-15T13:23:05;17.05;;;7.13;;
69985;SDS011;57328;52.054;5.294;2023-05-15T13:25:32;14.43;;;7.10;;
69985;SDS011;57328;52.054;5.294;2023-05-15T13:28:01;17.05;;;7.32;;
69985;SDS011;57328;52.054;5.294;2023-05-15T13:30:29;17.33;;;7.85;;
69985;SDS011;57328;52.054;5.294;2023-05-15T13:32:58;18.27;;;7.75;;
69985;SDS011;57328;52.054;5.294;2023-05-15T13:35:25;21.38;;;8.18;;
69985;SDS011;57328;52.054;5.294;2023-05-15T13:37:53;20.45;;;8.80;;
69985;SDS011;57328;52.054;5.294;2023-05-15T13:42:49;14.18;;;7.00;;
69985;SDS011;57328;52.054;5.294;2023-05-15T13:45:16;17.45;;;7.43;;
69985;SDS011;57328;52.054;5.294;2023-05-15T13:47:43;14.50;;;6.45;;
69985;SDS011;57328;52.054;5.294;2023-05-15T13:50:12;13.00;;;6.32;;
69985;SDS011;57328;52.054;5.294;2023-05-15T13:52:40;14.07;;;6.70;;
69985;SDS011;57328;52.054;5.294;2023-05-15T13:55:08;12.05;;;6.40;;
69985;SDS011;57328;52.054;5.294;2023-05-15T13:57:35;9.93;;;4.90;;
69985;SDS011;57328;52.054;5.294;2023-05-15T14:00:06;11.70;;;6.05;;
69985;SDS011;57328;52.054;5.294;2023-05-15T14:02:35;10.57;;;5.40;;
69985;SDS011;57328;52.054;5.294;2023-05-15T14:05:03;11.10;;;4.60;;
69985;SDS011;57328;52.054;5.294;2023-05-15T14:07:30;9.95;;;3.90;;
69985;SDS011;57328;52.054;5.294;2023-05-15T14:09:57;5.35;;;2.92;;
69985;SDS011;57328;52.054;5.294;2023-05-15T14:12:27;10.95;;;4.35;;
69985;SDS011;57328;52.054;5.294;2023-05-15T14:14:54;9.90;;;4.32;;
69985;SDS011;57328;52.054;5.294;2023-05-15T14:17:21;9.05;;;3.90;;
69985;SDS011;57328;52.054;5.294;2023-05-15T14:19:49;12.75;;;4.60;;
69985;SDS011;57328;52.054;5.294;2023-05-15T14:22:16;7.30;;;3.13;;
69985;SDS011;57328;52.054;5.294;2023-05-15T14:24:43;7.80;;;3.85;;
69985;SDS011;57328;52.054;5.294;2023-05-15T14:27:10;6.93;;;2.95;;
69985;SDS011;57328;52.054;5.294;2023-05-15T14:29:38;8.45;;;3.40;;
69985;SDS011;57328;52.054;5.294;2023-05-15T14:32:05;7.05;;;2.72;;
69985;SDS011;57328;52.054;5.294;2023-05-15T14:34:34;9.20;;;3.78;;
69985;SDS011;57328;52.054;5.294;2023-05-15T14:37:01;7.68;;;3.42;;
69985;SDS011;57328;52.054;5.294;2023-05-15T14:39:28;9.70;;;3.20;;
69985;SDS011;57328;52.054;5.294;2023-05-15T14:41:55;10.13;;;3.15;;
69985;SDS011;57328;52.054;5.294;2023-05-15T14:44:22;11.05;;;3.40;;
69985;SDS011;57328;52.054;5.294;2023-05-15T14:47:03;9.25;;;3.70;;
69985;SDS011;57328;52.054;5.294;2023-05-15T14:49:30;7.57;;;2.53;;
69985;SDS011;57328;52.054;5.294;2023-05-15T14:51:58;9.27;;;3.10;;
69985;SDS011;57328;52.054;5.294;2023-05-15T14:54:25;10.80;;;3.33;;
69985;SDS011;57328;52.054;5.294;2023-05-15T14:56:52;10.82;;;3.55;;
69985;SDS011;57328;52.054;5.294;2023-05-15T14:59:23;10.98;;;3.38;;